createdAt,value
2022-09-27T00:02:27.007Z,95.38
2022-09-27T00:04:58.497Z,82.55
2022-09-27T00:07:25.795Z,58.77
2022-09-27T00:09:52.870Z,72.78
2022-09-27T00:12:20.686Z,64.80
2022-09-27T00:14:47.982Z,51.90
2022-09-27T00:17:15.174Z,54.17
2022-09-27T00:19:44.999Z,51.03
2022-09-27T00:22:14.435Z,50.42
2022-09-27T00:27:14.239Z,68.30
2022-09-27T00:29:44.910Z,53.88
2022-09-27T00:32:14.792Z,65.18
2022-09-27T00:34:44.834Z,76.78
2022-09-27T00:37:14.049Z,67.30
2022-09-27T00:39:43.391Z,95.00
2022-09-27T00:42:15.150Z,72.57
2022-09-27T00:44:44.355Z,109.78
2022-09-27T00:47:25.118Z,83.40
2022-09-27T00:50:38.321Z,96.22
2022-09-27T00:53:17.715Z,78.35
2022-09-27T00:56:04.756Z,81.03
2022-09-27T00:58:39.795Z,98.25
2022-09-27T01:01:13.772Z,81.13
2022-09-27T01:03:56.661Z,70.22
2022-09-27T01:06:26.268Z,68.88
2022-09-27T01:08:55.787Z,69.97
2022-09-27T01:11:30.726Z,78.60
2022-09-27T01:14:11.207Z,73.10
2022-09-27T01:16:46.650Z,64.10
2022-09-27T01:19:34.450Z,65.03
2022-09-27T01:22:08.226Z,64.78
2022-09-27T01:25:09.403Z,63.35
2022-09-27T01:28:00.123Z,79.72
2022-09-27T01:30:43.267Z,63.60
2022-09-27T01:33:39.897Z,81.47
2022-09-27T01:36:27.766Z,77.80
2022-09-27T01:39:01.412Z,79.20
2022-09-27T01:41:57.639Z,63.67
2022-09-27T01:44:49.064Z,57.15
2022-09-27T01:47:31.985Z,62.38
2022-09-27T01:50:25.517Z,63.65
2022-09-27T01:53:05.046Z,59.33
2022-09-27T01:55:41.442Z,58.70
2022-09-27T01:58:33.971Z,76.50
2022-09-27T02:01:03.364Z,61.47
2022-09-27T02:03:36.075Z,57.80
2022-09-27T02:06:41.222Z,49.08
2022-09-27T02:09:29.002Z,61.10
2022-09-27T02:12:24.081Z,51.55
2022-09-27T02:14:57.789Z,57.00
2022-09-27T02:17:52.001Z,59.58
2022-09-27T02:20:28.661Z,64.03
2022-09-27T02:23:01.960Z,51.63
2022-09-27T02:25:48.394Z,69.88
2022-09-27T02:30:56.017Z,51.85
2022-09-27T02:33:31.711Z,54.50
2022-09-27T02:35:59.653Z,59.63
2022-09-27T02:38:27.042Z,51.08
2022-09-27T02:40:57.292Z,48.95
2022-09-27T02:43:29.186Z,54.10
2022-09-27T02:46:16.747Z,52.40
2022-09-27T02:49:27.678Z,52.97
2022-09-27T02:52:54.194Z,52.00
2022-09-27T02:55:31.303Z,52.92
2022-09-27T02:58:33.785Z,46.00
2022-09-27T03:01:47.558Z,55.22
2022-09-27T03:04:48.880Z,49.75
2022-09-27T03:07:16.685Z,49.75
2022-09-27T03:09:46.285Z,49.80
2022-09-27T03:12:13.814Z,47.20
2022-09-27T03:14:43.803Z,47.70
2022-09-27T03:17:30.944Z,52.53
2022-09-27T03:20:17.951Z,50.22
2022-09-27T03:23:07.012Z,51.50
2022-09-27T03:25:34.407Z,46.88
2022-09-27T03:28:03.974Z,50.22
2022-09-27T03:30:32.151Z,52.53
2022-09-27T03:32:59.505Z,42.47
2022-09-27T03:35:49.508Z,44.95
2022-09-27T03:38:19.460Z,40.13
2022-09-27T03:40:49.021Z,48.78
2022-09-27T03:43:16.440Z,46.83
2022-09-27T03:45:46.151Z,42.13
2022-09-27T03:48:15.672Z,39.95
2022-09-27T03:50:45.188Z,43.67
2022-09-27T03:53:12.570Z,42.65
2022-09-27T03:55:39.693Z,43.53
2022-09-27T03:58:07.169Z,43.10
2022-09-27T04:00:37.281Z,39.78
2022-09-27T04:03:06.656Z,42.53
2022-09-27T04:05:55.138Z,41.22
2022-09-27T04:08:32.995Z,45.10
2022-09-27T04:11:00.362Z,43.58
2022-09-27T04:13:27.722Z,43.00
2022-09-27T04:15:56.748Z,42.92
2022-09-27T04:18:33.390Z,42.13
2022-09-27T04:21:23.886Z,41.47
2022-09-27T04:23:56.202Z,41.28
2022-09-27T04:26:26.691Z,42.58
2022-09-27T04:29:04.432Z,48.78
2022-09-27T04:31:40.093Z,42.08
2022-09-27T04:34:46.536Z,44.40
2022-09-27T04:37:23.200Z,41.75
2022-09-27T04:39:56.765Z,43.95
2022-09-27T04:44:56.250Z,43.33
2022-09-27T04:47:25.695Z,47.53
2022-09-27T04:49:55.095Z,44.10
2022-09-27T04:52:24.553Z,42.80
2022-09-27T04:54:56.187Z,50.78
2022-09-27T04:57:23.410Z,46.85
2022-09-27T04:59:51.596Z,52.00
2022-09-27T05:02:18.925Z,49.88
2022-09-27T05:05:01.536Z,44.33
2022-09-27T05:07:38.182Z,45.85
2022-09-27T05:10:10.830Z,38.80
2022-09-27T05:12:38.073Z,50.88
2022-09-27T05:15:08.728Z,40.50
2022-09-27T05:17:58.774Z,36.33
2022-09-27T05:20:47.856Z,33.50
2022-09-27T05:23:21.910Z,30.83
2022-09-27T05:25:49.137Z,32.92
2022-09-27T05:28:24.116Z,34.58
2022-09-27T05:30:56.615Z,34.80
2022-09-27T05:33:26.136Z,37.33
2022-09-27T05:36:20.447Z,34.65
2022-09-27T05:38:49.841Z,37.95
2022-09-27T05:41:21.195Z,37.88
2022-09-27T05:43:49.284Z,37.22
2022-09-27T05:46:17.017Z,44.47
2022-09-27T05:48:45.053Z,44.70
2022-09-27T05:51:12.158Z,39.42
2022-09-27T05:53:40.791Z,49.65
2022-09-27T05:56:15.611Z,44.67
2022-09-27T05:59:08.350Z,50.90
2022-09-27T06:01:55.789Z,50.33
2022-09-27T06:04:41.403Z,49.50
2022-09-27T06:07:32.319Z,51.65
2022-09-27T06:10:03.794Z,44.67
2022-09-27T06:12:34.033Z,45.30
2022-09-27T06:15:02.347Z,43.80
2022-09-27T06:17:46.986Z,44.50
2022-09-27T06:20:19.307Z,47.05
2022-09-27T06:22:49.248Z,41.97
2022-09-27T06:25:17.340Z,37.80
2022-09-27T06:28:01.029Z,37.40
2022-09-27T06:30:31.641Z,33.78
2022-09-27T06:33:06.752Z,36.72
2022-09-27T06:35:42.435Z,35.45
2022-09-27T06:38:15.630Z,37.58
2022-09-27T06:40:49.897Z,39.13
2022-09-27T06:43:22.450Z,33.92
2022-09-27T06:46:22.255Z,33.00
2022-09-27T06:49:07.891Z,39.03
2022-09-27T06:51:35.881Z,31.02
2022-09-27T06:54:03.073Z,39.45
2022-09-27T06:56:32.545Z,35.35
2022-09-27T06:59:19.377Z,36.65
2022-09-27T07:01:52.560Z,36.22
2022-09-27T07:04:43.182Z,37.90
2022-09-27T07:07:20.758Z,46.83
2022-09-27T07:09:49.651Z,37.83
2022-09-27T07:12:16.943Z,33.35
2022-09-27T07:14:46.619Z,33.78
2022-09-27T07:17:19.272Z,38.05
2022-09-27T07:19:51.304Z,31.58
2022-09-27T07:22:18.761Z,34.13
2022-09-27T07:24:54.239Z,31.30
2022-09-27T07:27:26.718Z,30.52
2022-09-27T07:29:56.872Z,24.70
2022-09-27T07:32:25.425Z,30.63
2022-09-27T07:34:54.900Z,25.83
2022-09-27T07:37:25.136Z,33.10
2022-09-27T07:39:55.450Z,23.35
2022-09-27T07:42:28.789Z,21.95
2022-09-27T07:44:57.473Z,34.55
2022-09-27T07:47:30.500Z,31.23
2022-09-27T07:50:13.694Z,31.33
2022-09-27T07:52:47.942Z,34.83
2022-09-27T07:55:37.736Z,25.08
2022-09-27T07:58:22.236Z,30.50
2022-09-27T08:00:51.754Z,28.63
2022-09-27T08:03:21.580Z,33.55
2022-09-27T08:05:51.208Z,30.50
2022-09-27T08:08:18.727Z,26.67
2022-09-27T08:10:48.277Z,28.70
2022-09-27T08:13:20.384Z,30.27
2022-09-27T08:15:52.855Z,30.17
2022-09-27T08:18:25.969Z,26.40
2022-09-27T08:21:00.054Z,29.65
2022-09-27T08:23:31.053Z,27.58
2022-09-27T08:26:20.770Z,27.58
2022-09-27T08:28:56.456Z,38.58
2022-09-27T08:31:26.666Z,39.40
2022-09-27T08:36:28.807Z,39.92
2022-09-27T08:39:00.777Z,43.67
2022-09-27T08:42:14.680Z,44.42
2022-09-27T08:45:08.188Z,42.28
2022-09-27T08:47:55.142Z,42.05
2022-09-27T08:50:41.883Z,40.35
2022-09-27T08:53:33.998Z,36.95
2022-09-27T08:56:03.779Z,37.00
2022-09-27T08:58:49.326Z,46.72
2022-09-27T09:01:25.167Z,44.40
2022-09-27T09:04:46.396Z,44.40
2022-09-27T09:07:24.543Z,46.58
2022-09-27T09:10:36.401Z,52.70
2022-09-27T09:13:29.899Z,43.30
2022-09-27T09:16:13.967Z,47.95
2022-09-27T09:19:32.722Z,43.78
2022-09-27T09:22:39.258Z,48.10
2022-09-27T09:25:55.201Z,42.83
2022-09-27T09:28:41.804Z,42.85
2022-09-27T09:31:13.014Z,38.80
2022-09-27T09:33:50.740Z,46.90
2022-09-27T09:36:46.222Z,44.38
2022-09-27T09:39:29.338Z,36.60
2022-09-27T09:42:09.216Z,48.13
2022-09-27T09:45:06.472Z,39.50
2022-09-27T09:47:45.485Z,38.75
2022-09-27T09:50:31.018Z,37.72
2022-09-27T09:53:21.703Z,35.95
2022-09-27T09:56:05.782Z,48.00
2022-09-27T09:58:42.314Z,36.75
2022-09-27T10:01:46.153Z,37.58
2022-09-27T10:04:28.517Z,37.08
2022-09-27T10:07:01.212Z,37.80
2022-09-27T10:09:35.120Z,38.60
2022-09-27T10:12:17.823Z,37.35
2022-09-27T10:14:49.025Z,32.40
2022-09-27T10:17:21.369Z,28.38
2022-09-27T10:19:54.493Z,30.80
2022-09-27T10:22:29.169Z,30.35
2022-09-27T10:25:07.281Z,30.52
2022-09-27T10:27:56.116Z,29.08
2022-09-27T10:30:34.613Z,29.25
2022-09-27T10:33:26.662Z,28.77
2022-09-27T10:36:03.938Z,29.48
2022-09-27T10:38:37.046Z,27.63
2022-09-27T10:41:38.672Z,25.27
2022-09-27T10:44:17.754Z,23.90
2022-09-27T10:46:50.987Z,23.02
2022-09-27T10:49:41.619Z,22.00
2022-09-27T10:52:42.664Z,20.77
2022-09-27T10:55:28.431Z,20.73
2022-09-27T10:57:56.802Z,19.52
2022-09-27T11:00:37.747Z,21.38
2022-09-27T11:03:13.976Z,22.40
2022-09-27T11:05:45.333Z,22.30
2022-09-27T11:11:17.659Z,22.17
2022-09-27T11:13:58.057Z,19.23
2022-09-27T11:16:48.344Z,21.02
2022-09-27T11:19:25.005Z,16.85
2022-09-27T11:22:03.830Z,16.98
2022-09-27T11:25:00.883Z,16.50
2022-09-27T11:27:57.310Z,18.42
2022-09-27T11:30:42.134Z,23.02
2022-09-27T11:33:41.359Z,17.50
2022-09-27T11:36:39.181Z,16.42
2022-09-27T11:39:18.736Z,16.85
2022-09-27T11:42:23.730Z,16.98
2022-09-27T11:45:27.883Z,15.75
2022-09-27T11:48:01.611Z,17.40
2022-09-27T11:51:06.754Z,15.20
2022-09-27T11:53:46.306Z,13.88
2022-09-27T11:56:18.985Z,13.40
2022-09-27T11:59:05.249Z,12.43
2022-09-27T12:01:54.438Z,13.38
2022-09-27T12:04:49.992Z,14.93
2022-09-27T12:07:24.715Z,12.95
2022-09-27T12:10:01.326Z,15.05
2022-09-27T12:12:36.045Z,16.33
2022-09-27T12:15:09.682Z,12.40
2022-09-27T12:17:44.133Z,11.82
2022-09-27T12:20:25.480Z,19.17
2022-09-27T12:23:09.613Z,11.27
2022-09-27T12:28:47.083Z,14.38
2022-09-27T12:32:00.614Z,12.50
2022-09-27T12:34:46.120Z,13.93
2022-09-27T12:37:25.350Z,11.40
2022-09-27T12:40:06.371Z,14.90
2022-09-27T12:43:12.936Z,11.63
2022-09-27T12:46:07.961Z,14.10
2022-09-27T12:49:06.800Z,11.68
2022-09-27T12:51:52.521Z,10.73
2022-09-27T12:54:46.052Z,10.75
2022-09-27T12:57:18.238Z,11.05
2022-09-27T12:59:50.113Z,11.13
2022-09-27T13:02:29.144Z,12.18
2022-09-27T13:05:20.533Z,20.30
2022-09-27T13:08:14.268Z,12.05
2022-09-27T13:10:52.883Z,10.77
2022-09-27T13:13:34.237Z,13.88
2022-09-27T13:16:07.778Z,12.13
2022-09-27T13:18:49.876Z,11.73
2022-09-27T13:21:56.406Z,16.50
2022-09-27T13:24:43.349Z,10.80
2022-09-27T13:27:42.641Z,12.40
2022-09-27T13:30:19.113Z,18.33
2022-09-27T13:33:09.936Z,10.55
2022-09-27T13:36:20.598Z,13.00
2022-09-27T13:39:01.359Z,12.32
2022-09-27T13:41:46.650Z,9.80
2022-09-27T13:44:34.970Z,15.88
2022-09-27T13:47:11.707Z,12.93
2022-09-27T13:49:42.568Z,16.55
2022-09-27T13:52:33.626Z,14.68
2022-09-27T13:55:45.862Z,15.00
2022-09-27T13:58:37.855Z,10.02
2022-09-27T14:01:29.551Z,10.50
2022-09-27T14:04:18.598Z,11.32
2022-09-27T14:06:57.292Z,10.25
2022-09-27T14:09:31.984Z,13.68
2022-09-27T14:12:19.220Z,20.42
2022-09-27T14:14:49.624Z,13.40
2022-09-27T14:17:20.131Z,10.13
2022-09-27T14:19:51.255Z,15.77
2022-09-27T14:22:23.707Z,14.20
2022-09-27T14:24:57.870Z,12.98
2022-09-27T14:27:36.977Z,14.77
2022-09-27T14:30:21.869Z,14.18
2022-09-27T14:33:28.673Z,14.65
2022-09-27T14:36:16.098Z,17.08
2022-09-27T14:38:48.270Z,19.23
2022-09-27T14:41:27.809Z,16.77
2022-09-27T14:43:56.290Z,12.65
2022-09-27T14:46:29.938Z,13.85
2022-09-27T14:48:57.957Z,13.35
2022-09-27T14:51:32.657Z,15.65
2022-09-27T14:54:01.466Z,18.73
2022-09-27T14:56:38.056Z,18.88
2022-09-27T14:59:16.240Z,17.27
2022-09-27T15:01:53.271Z,15.20
2022-09-27T15:04:23.416Z,16.83
2022-09-27T15:06:51.953Z,15.88
2022-09-27T15:09:23.023Z,18.05
2022-09-27T15:11:57.256Z,19.23
2022-09-27T15:14:26.003Z,16.40
2022-09-27T15:16:53.275Z,16.85
2022-09-27T15:19:24.172Z,17.92
2022-09-27T15:21:54.458Z,22.17
2022-09-27T15:24:39.478Z,19.63
2022-09-27T15:27:23.782Z,21.88
2022-09-27T15:29:54.698Z,23.20
2022-09-27T15:32:24.193Z,24.97
2022-09-27T15:34:51.560Z,20.13
2022-09-27T15:37:35.418Z,19.10
2022-09-27T15:40:39.679Z,23.35
2022-09-27T15:43:23.131Z,21.60
2022-09-27T15:45:52.745Z,19.60
2022-09-27T15:48:21.158Z,18.90
2022-09-27T15:50:50.103Z,25.88
2022-09-27T15:53:35.874Z,19.95
2022-09-27T15:56:08.739Z,19.90
2022-09-27T15:58:41.181Z,21.80
2022-09-27T16:01:15.347Z,20.33
2022-09-27T16:03:50.511Z,20.70
2022-09-27T16:06:20.951Z,19.50
2022-09-27T16:08:48.445Z,22.25
2022-09-27T16:11:18.023Z,23.75
2022-09-27T16:13:45.150Z,22.63
2022-09-27T16:16:19.414Z,10.18
2022-09-27T16:18:47.325Z,7.32
2022-09-27T16:21:15.154Z,6.40
2022-09-27T16:23:42.543Z,7.28
2022-09-27T16:26:09.696Z,10.35
2022-09-27T16:28:37.104Z,5.10
2022-09-27T16:31:11.402Z,7.60
2022-09-27T16:33:38.926Z,9.15
2022-09-27T16:36:14.315Z,8.40
2022-09-27T16:38:44.586Z,9.02
2022-09-27T16:41:11.690Z,6.55
2022-09-27T16:43:40.962Z,6.60
2022-09-27T16:46:18.566Z,3.40
2022-09-27T16:48:49.191Z,6.75
2022-09-27T16:51:36.625Z,4.15
2022-09-27T16:54:05.892Z,5.97
2022-09-27T16:56:37.106Z,8.55
2022-09-27T16:59:09.731Z,3.33
2022-09-27T17:01:37.311Z,3.53
2022-09-27T17:04:07.212Z,4.72
2022-09-27T17:06:35.996Z,1.60
2022-09-27T17:09:07.833Z,1.33
2022-09-27T17:11:37.544Z,5.85
2022-09-27T17:14:14.563Z,3.00
2022-09-27T17:16:45.543Z,2.42
2022-09-27T17:19:14.062Z,3.40
2022-09-27T17:21:42.370Z,4.13
2022-09-27T17:24:12.855Z,5.25
2022-09-27T17:26:40.723Z,3.90
2022-09-27T17:29:10.503Z,5.63
2022-09-27T17:31:41.633Z,4.75
2022-09-27T17:34:12.177Z,5.00
2022-09-27T17:36:48.174Z,4.35
2022-09-27T17:39:18.651Z,2.55
2022-09-27T17:41:49.897Z,3.70
2022-09-27T17:44:20.349Z,2.80
2022-09-27T17:47:09.893Z,2.22
2022-09-27T17:49:58.466Z,2.38
2022-09-27T17:52:28.701Z,2.03
2022-09-27T17:54:59.153Z,4.18
2022-09-27T17:57:26.508Z,2.53
2022-09-27T17:59:57.791Z,6.88
2022-09-27T18:02:30.101Z,5.88
2022-09-27T18:05:02.498Z,5.60
2022-09-27T18:07:33.458Z,3.00
2022-09-27T18:10:05.724Z,1.90
2022-09-27T18:12:34.756Z,2.60
2022-09-27T18:15:02.677Z,1.23
2022-09-27T18:17:32.788Z,2.38
2022-09-27T18:20:03.933Z,2.47
2022-09-27T18:22:33.375Z,3.28
2022-09-27T18:25:05.418Z,2.30
2022-09-27T18:27:34.565Z,2.25
2022-09-27T18:30:03.387Z,3.75
2022-09-27T18:32:33.497Z,2.50
2022-09-27T18:35:00.690Z,2.70
2022-09-27T18:37:30.391Z,3.00
2022-09-27T18:39:57.460Z,3.72
2022-09-27T18:42:26.699Z,3.53
2022-09-27T18:44:57.013Z,2.55
2022-09-27T18:47:29.551Z,1.60
2022-09-27T18:49:56.883Z,3.20
2022-09-27T18:52:25.469Z,1.55
2022-09-27T18:54:55.314Z,4.88
2022-09-27T18:57:24.494Z,1.27
2022-09-27T18:59:51.980Z,1.60
2022-09-27T19:02:21.382Z,2.00
2022-09-27T19:04:48.731Z,1.55
2022-09-27T19:07:18.359Z,2.20
2022-09-27T19:09:48.124Z,2.30
2022-09-27T19:12:17.748Z,1.38
2022-09-27T19:14:45.117Z,2.47
2022-09-27T19:17:12.230Z,1.25
2022-09-27T19:19:39.818Z,5.00
2022-09-27T19:22:07.774Z,5.20
2022-09-27T19:24:34.882Z,2.05
2022-09-27T19:27:04.354Z,3.58
2022-09-27T19:29:35.000Z,5.05
2022-09-27T19:32:04.371Z,3.20
2022-09-27T19:34:33.844Z,3.72
2022-09-27T19:37:03.222Z,5.30
2022-09-27T19:39:32.983Z,2.70
2022-09-27T19:42:00.072Z,4.45
2022-09-27T19:44:27.567Z,5.80
2022-09-27T19:46:55.356Z,4.68
2022-09-27T19:49:27.115Z,5.47
2022-09-27T19:54:23.894Z,4.63
2022-09-27T19:56:50.977Z,5.20
2022-09-27T19:59:20.854Z,6.57
2022-09-27T20:01:48.543Z,5.13
2022-09-27T20:04:18.577Z,6.00
2022-09-27T20:06:50.608Z,5.80
2022-09-27T20:09:20.162Z,5.22
2022-09-27T20:11:47.748Z,10.80
2022-09-27T20:14:17.146Z,9.60
2022-09-27T20:16:44.647Z,10.02
2022-09-27T20:19:12.365Z,9.55
2022-09-27T20:21:39.871Z,11.00
2022-09-27T20:24:07.104Z,9.68
2022-09-27T20:26:37.983Z,12.30
2022-09-27T20:29:06.778Z,11.30
2022-09-27T20:32:02.982Z,12.20
2022-09-27T20:34:33.073Z,9.73
2022-09-27T20:37:00.244Z,10.75
2022-09-27T20:39:34.110Z,10.15
2022-09-27T20:42:01.573Z,7.88
2022-09-27T20:44:28.722Z,8.30
2022-09-27T20:46:55.938Z,8.95
2022-09-27T20:49:28.165Z,7.30
2022-09-27T20:51:55.279Z,7.90
2022-09-27T20:54:24.639Z,8.07
2022-09-27T20:56:52.702Z,8.35
2022-09-27T20:59:23.329Z,12.73
2022-09-27T21:01:53.654Z,14.07
2022-09-27T21:04:22.389Z,8.40
2022-09-27T21:06:49.647Z,6.28
2022-09-27T21:09:19.378Z,7.47
2022-09-27T21:11:48.443Z,6.63
2022-09-27T21:14:16.089Z,6.63
2022-09-27T21:16:43.421Z,6.85
2022-09-27T21:19:11.292Z,7.75
2022-09-27T21:21:40.995Z,9.93
2022-09-27T21:24:08.530Z,10.05
2022-09-27T21:26:36.298Z,13.75
2022-09-27T21:29:08.850Z,8.93
2022-09-27T21:31:38.987Z,10.00
2022-09-27T21:34:09.513Z,14.77
2022-09-27T21:36:42.327Z,10.00
2022-09-27T21:39:10.207Z,11.60
2022-09-27T21:41:40.627Z,8.90
2022-09-27T21:44:08.437Z,8.73
2022-09-27T21:46:40.434Z,8.38
2022-09-27T21:51:40.243Z,9.32
2022-09-27T21:54:10.111Z,9.57
2022-09-27T21:59:12.119Z,6.93
2022-09-27T22:01:39.655Z,12.02
2022-09-27T22:04:07.209Z,9.73
2022-09-27T22:06:36.831Z,8.90
2022-09-27T22:09:07.114Z,8.10
2022-09-27T22:11:42.494Z,8.93
2022-09-27T22:14:11.001Z,8.07
2022-09-27T22:16:45.958Z,8.65
2022-09-27T22:19:18.437Z,7.75
2022-09-27T22:21:46.209Z,8.82
2022-09-27T22:24:16.559Z,6.55
2022-09-27T22:26:50.458Z,7.53
2022-09-27T22:29:22.410Z,7.03
2022-09-27T22:31:49.612Z,7.53
2022-09-27T22:34:28.069Z,10.60
2022-09-27T22:36:57.598Z,9.27
2022-09-27T22:39:27.070Z,10.27
2022-09-27T22:41:54.261Z,8.13
2022-09-27T22:44:24.167Z,10.38
2022-09-27T22:46:51.512Z,9.48
2022-09-27T22:49:18.804Z,13.02
2022-09-27T22:51:46.456Z,9.80
2022-09-27T22:54:13.778Z,13.80
2022-09-27T22:56:40.881Z,14.48
2022-09-27T22:59:12.745Z,10.50
2022-09-27T23:04:14.294Z,8.38
2022-09-27T23:06:42.758Z,12.25
2022-09-27T23:09:12.653Z,10.38
2022-09-27T23:11:43.133Z,8.70
2022-09-27T23:14:12.451Z,11.27
2022-09-27T23:16:42.074Z,20.85
2022-09-27T23:19:11.657Z,9.75
2022-09-27T23:21:42.085Z,8.90
2022-09-27T23:24:10.578Z,8.75
2022-09-27T23:26:40.066Z,9.75
2022-09-27T23:29:07.336Z,8.68
2022-09-27T23:31:37.064Z,8.95
2022-09-27T23:34:04.930Z,11.82
2022-09-27T23:36:32.156Z,8.48
2022-09-27T23:39:01.842Z,11.68
2022-09-27T23:41:29.192Z,10.82
2022-09-27T23:43:56.607Z,8.43
2022-09-27T23:46:25.009Z,9.77
2022-09-27T23:48:53.453Z,8.80
2022-09-27T23:51:23.014Z,10.18
2022-09-27T23:53:52.703Z,8.57
2022-09-27T23:56:22.472Z,9.38
2022-09-27T23:58:54.173Z,11.18
